Time;durP1;ratioP1;P1;durP2;ratioP2;P2;SDS_P1;SDS_P2;PMS_P1;PMS_P2;Temp;Humidity;BMP_temperature;BMP_pressure;BME280_temperature;BME280_humidity;BME280_pressure;Samples;Min_cycle;Max_cycle;Signal;HPM_P1;HPM_P2
2023/01/25 00:01:45;;;;;;;1999.90;999.90;;;;;;;1.75;100.00;99295.78;5111699;28;20034;-74
2023/01/25 00:04:11;;;;;;;1999.90;999.90;;;;;;;1.68;100.00;99294.94;5112828;28;20027;-73
2023/01/25 00:06:36;;;;;;;1999.90;999.90;;;;;;;1.77;100.00;99296.41;5110345;28;20658;-77
2023/01/25 00:09:02;;;;;;;1999.90;999.90;;;;;;;1.67;100.00;99279.78;5092356;28;20080;-75
2023/01/25 00:11:28;;;;;;;1999.90;999.90;;;;;;;1.69;100.00;99283.13;5091014;28;20078;-75
2023/01/25 00:13:54;;;;;;;1999.90;999.90;;;;;;;1.72;100.00;99290.81;5092701;28;20027;-76
2023/01/25 00:16:19;;;;;;;1999.90;999.90;;;;;;;1.76;100.00;99285.81;5092596;28;20024;-75
2023/01/25 00:18:45;;;;;;;1999.90;999.90;;;;;;;1.79;100.00;99288.94;5092316;28;20032;-75
2023/01/25 00:21:12;;;;;;;1999.90;999.90;;;;;;;1.77;100.00;99285.63;5092217;28;20434;-76
2023/01/25 00:23:37;;;;;;;1999.90;999.90;;;;;;;1.79;100.00;99290.78;5090777;28;20058;-76
2023/01/25 00:26:02;;;;;;;1999.90;999.90;;;;;;;1.72;100.00;99284.56;5090760;28;20028;-75
2023/01/25 00:28:28;;;;;;;1999.90;999.90;;;;;;;1.81;100.00;99286.03;5090910;28;20058;-76
2023/01/25 00:30:59;;;;;;;1999.90;999.90;;;;;;;1.87;100.00;99298.69;5092743;28;20044;-74
2023/01/25 00:33:36;;;;;;;1999.90;999.90;;;;;;;1.88;100.00;99295.78;5092049;28;20575;-75
2023/01/25 00:36:22;;;;;;;1999.90;999.90;;;;;;;1.85;100.00;99290.78;5090600;28;20035;-75
2023/01/25 00:38:47;;;;;;;1999.90;999.90;;;;;;;1.89;100.00;99293.91;5090309;28;20058;-75
2023/01/25 00:41:13;;;;;;;1999.90;999.90;;;;;;;1.87;100.00;99293.31;5091743;28;20078;-75
2023/01/25 00:43:38;;;;;;;1999.90;999.90;;;;;;;1.78;100.00;99279.19;5092716;28;20537;-76
2023/01/25 00:46:04;;;;;;;1999.90;999.90;;;;;;;1.92;100.00;99286.25;5109753;28;20020;-74
2023/01/25 00:48:29;;;;;;;1999.90;999.90;;;;;;;1.96;100.00;99276.69;5109300;28;20031;-76
2023/01/25 00:50:59;;;;;;;1999.90;999.90;;;;;;;1.93;100.00;99281.69;5109199;28;20416;-74
2023/01/25 00:53:25;;;;;;;1999.90;999.90;;;;;;;1.90;100.00;99284.78;5110205;28;20054;-76
2023/01/25 00:55:53;;;;;;;1999.90;999.90;;;;;;;1.88;100.00;99276.91;5110561;28;20061;-73
2023/01/25 00:58:18;;;;;;;1999.90;999.90;;;;;;;1.91;100.00;99281.06;5110863;28;20035;-76
2023/01/25 01:00:44;;;;;;;1999.90;999.90;;;;;;;1.92;100.00;99278.16;5106729;28;20420;-75
2023/01/25 01:03:09;;;;;;;1999.90;999.90;;;;;;;1.95;100.00;99285.81;5103055;28;20460;-75
2023/01/25 01:05:35;;;;;;;1999.90;999.90;;;;;;;1.96;100.00;99282.09;5111640;28;20087;-76
2023/01/25 01:08:01;;;;;;;1999.90;999.90;;;;;;;1.94;100.00;99273.38;5114533;28;20050;-74
2023/01/25 01:10:26;;;;;;;1999.90;999.90;;;;;;;1.98;100.00;99282.72;5118003;28;20036;-77
2023/01/25 01:12:51;;;;;;;1999.90;999.90;;;;;;;2.00;100.00;99283.34;5111895;28;20093;-74
2023/01/25 01:15:17;;;;;;;1999.90;999.90;;;;;;;1.86;100.00;99268.19;5110483;28;20027;-74
2023/01/25 01:17:42;;;;;;;1999.90;999.90;;;;;;;1.89;100.00;99281.25;5110749;28;20031;-73
2023/01/25 01:20:08;;;;;;;1999.90;999.90;;;;;;;1.93;100.00;99279.81;5090464;28;20032;-74
2023/01/25 01:22:33;;;;;;;1999.90;999.90;;;;;;;1.94;100.00;99281.47;5090708;28;20078;-73
2023/01/25 01:24:58;;;;;;;1999.90;999.90;;;;;;;1.81;100.00;99278.78;5090857;28;20031;-76
2023/01/25 01:27:24;;;;;;;1999.90;999.90;;;;;;;1.88;100.00;99282.28;5089260;28;20042;-75
2023/01/25 01:29:49;;;;;;;1999.90;999.90;;;;;;;1.82;100.00;99277.72;5090624;28;20020;-75
2023/01/25 01:32:14;;;;;;;1999.90;999.90;;;;;;;1.78;100.00;99279.19;5090444;28;20464;-74
2023/01/25 01:34:40;;;;;;;1999.90;999.90;;;;;;;1.78;100.00;99284.59;5090443;28;20034;-74
2023/01/25 01:37:05;;;;;;;1999.90;999.90;;;;;;;1.76;100.00;99275.84;5090601;28;20118;-76
2023/01/25 01:39:30;;;;;;;1999.90;999.90;;;;;;;1.80;100.00;99284.38;5090516;28;20488;-75
2023/01/25 01:41:56;;;;;;;1999.90;999.90;;;;;;;1.75;100.00;99282.31;5090453;28;20038;-75
2023/01/25 01:44:41;;;;;;;1999.90;999.90;;;;;;;1.75;100.00;99282.31;5089262;28;20022;-77
2023/01/25 01:47:14;;;;;;;1999.90;999.90;;;;;;;1.68;100.00;99262.59;5088950;28;20090;-73
2023/01/25 01:49:39;;;;;;;1999.90;999.90;;;;;;;1.69;100.00;99266.94;5090139;28;20028;-76
2023/01/25 01:52:19;;;;;;;1999.90;999.90;;;;;;;1.61;100.00;99261.75;5088889;28;20081;-74
2023/01/25 01:54:57;;;;;;;1999.90;999.90;;;;;;;1.61;100.00;99259.88;5092922;28;20047;-76
2023/01/25 01:57:28;;;;;;;1999.90;999.90;;;;;;;1.53;100.00;99261.94;5110677;28;20039;-75
2023/01/25 01:59:59;;;;;;;1999.90;999.90;;;;;;;1.46;100.00;99261.94;5110770;28;20027;-75
2023/01/25 02:02:26;;;;;;;1999.90;999.90;;;;;;;1.40;100.00;99245.75;5113145;28;20050;-75
2023/01/25 02:04:56;;;;;;;1999.90;999.90;;;;;;;1.46;100.00;99248.47;5115046;28;20019;-76
2023/01/25 02:07:35;;;;;;;1999.90;999.90;;;;;;;1.44;100.00;99252.41;5114829;28;20046;-75
2023/01/25 02:10:03;;;;;;;1999.90;999.90;;;;;;;1.38;100.00;99250.53;5114604;28;20483;-75
2023/01/25 02:12:28;;;;;;;1999.90;999.90;;;;;;;1.37;100.00;99251.53;5114589;28;20438;-75
2023/01/25 02:14:54;;;;;;;1999.90;999.90;;;;;;;1.32;100.00;99254.84;5113518;28;20019;-75
2023/01/25 02:17:25;;;;;;;1999.90;999.90;;;;;;;1.24;100.00;99254.22;5113590;28;20077;-74
2023/01/25 02:20:13;;;;;;;1999.90;999.90;;;;;;;1.27;100.00;99251.94;5116810;28;20496;-78
2023/01/25 02:23:02;;;;;;;1999.90;999.90;;;;;;;1.21;100.00;99251.91;5101517;28;20493;-75
2023/01/25 02:25:28;;;;;;;1999.90;999.90;;;;;;;1.22;100.00;99261.69;5114378;28;20130;-76
2023/01/25 02:28:06;;;;;;;1999.90;999.90;;;;;;;1.17;100.00;99256.88;5114497;28;20106;-76
2023/01/25 02:30:32;;;;;;;1999.90;999.90;;;;;;;1.06;100.00;99250.25;5112997;28;20032;-75
2023/01/25 02:32:58;;;;;;;1999.90;999.90;;;;;;;1.04;100.00;99246.91;5114226;28;20495;-75
2023/01/25 02:35:43;;;;;;;1999.90;999.90;;;;;;;1.02;100.00;99262.44;5114116;28;20020;-76
2023/01/25 02:38:12;;;;;;;1999.90;999.90;;;;;;;0.96;100.00;99249.78;5114220;28;20027;-75
2023/01/25 02:40:47;;;;;;;1999.90;999.90;;;;;;;0.97;100.00;99245.22;5113963;28;20034;-75
2023/01/25 02:43:14;;;;;;;1999.90;999.90;;;;;;;1.04;100.00;99252.28;5114043;28;20019;-75
2023/01/25 02:45:39;;;;;;;1999.90;999.90;;;;;;;1.03;100.00;99256.00;5113267;28;20504;-74
2023/01/25 02:48:05;;;;;;;1999.90;999.90;;;;;;;0.95;100.00;99258.06;5114559;28;20028;-75
2023/01/25 02:50:30;;;;;;;1999.90;999.90;;;;;;;0.88;100.00;99246.41;5114422;28;20081;-75
2023/01/25 02:52:55;;;;;;;1999.90;999.90;;;;;;;0.93;100.00;99255.56;5112583;28;20032;-74
2023/01/25 02:55:21;;;;;;;1999.90;999.90;;;;;;;0.71;100.00;99231.66;5113374;28;20118;-76
2023/01/25 02:57:46;;;;;;;1999.90;999.90;;;;;;;0.67;100.00;99238.47;5113583;28;20016;-74
2023/01/25 03:00:12;;;;;;;1999.90;999.90;;;;;;;0.72;100.00;99247.59;5113574;28;20039;-76
2023/01/25 03:02:37;;;;;;;1999.90;999.90;;;;;;;0.72;100.00;99236.81;5113616;28;20514;-75
2023/01/25 03:05:02;;;;;;;1999.90;999.90;;;;;;;0.75;100.00;99238.31;5113734;28;20059;-76
2023/01/25 03:07:28;;;;;;;1999.90;999.90;;;;;;;0.64;100.00;99234.31;5113522;28;20065;-75
2023/01/25 03:09:53;;;;;;;1999.90;999.90;;;;;;;0.67;100.00;99238.47;5113487;28;20092;-75
2023/01/25 03:12:18;;;;;;;1999.90;999.90;;;;;;;0.61;100.00;99223.13;5113028;28;20040;-75
2023/01/25 03:14:44;;;;;;;1999.90;999.90;;;;;;;0.68;100.00;99224.81;5113014;28;20368;-76
2023/01/25 03:17:10;;;;;;;1999.90;999.90;;;;;;;0.65;100.00;99237.84;5114884;28;20023;-76
2023/01/25 03:19:35;;;;;;;1999.90;999.90;;;;;;;0.57;100.00;99233.44;5117912;28;20031;-75
2023/01/25 03:22:01;;;;;;;1999.90;999.90;;;;;;;0.59;100.00;99223.34;5117474;28;20384;-76
2023/01/25 03:24:27;;;;;;;1999.90;999.90;;;;;;;0.54;100.00;99223.09;5112348;28;20467;-74
2023/01/25 03:27:12;;;;;;;1999.90;999.90;;;;;;;0.55;100.00;99219.38;5113307;28;20026;-76
2023/01/25 03:29:37;;;;;;;1999.90;999.90;;;;;;;0.59;100.00;99226.03;5113167;28;20056;-75
2023/01/25 03:32:03;;;;;;;1999.90;999.90;;;;;;;0.62;100.00;99232.84;5113047;28;20833;-76
2023/01/25 03:34:28;;;;;;;1999.90;999.90;;;;;;;0.63;100.00;99232.66;5113217;28;20031;-77
2023/01/25 03:36:54;;;;;;;1999.90;999.90;;;;;;;0.48;100.00;99230.09;5113294;28;20369;-76
2023/01/25 03:39:19;;;;;;;1999.90;999.90;;;;;;;0.48;100.00;99218.50;5111916;28;20035;-75
2023/01/25 03:41:44;;;;;;;1999.90;999.90;;;;;;;0.35;100.00;99229.19;5113087;27;20027;-76
2023/01/25 03:44:13;;;;;;;1999.90;999.90;;;;;;;0.24;100.00;99214.44;5113688;28;20023;-75
2023/01/25 03:46:39;;;;;;;1999.90;999.90;;;;;;;0.40;100.00;99227.59;5114292;28;20026;-75
2023/01/25 03:49:05;;;;;;;1999.90;999.90;;;;;;;0.34;100.00;99230.25;5113737;28;20036;-75
2023/01/25 03:51:30;;;;;;;1999.90;999.90;;;;;;;0.31;100.00;99236.84;5111903;28;20486;-75
2023/01/25 03:53:56;;;;;;;1999.90;999.90;;;;;;;0.26;100.00;99227.69;5112716;27;20038;-75
2023/01/25 03:56:21;;;;;;;1999.90;999.90;;;;;;;0.34;100.00;99222.16;5112533;28;20019;-75
2023/01/25 03:58:46;;;;;;;1999.90;999.90;;;;;;;0.30;100.00;99232.50;5112573;28;20019;-75
2023/01/25 04:01:12;;;;;;;1999.90;999.90;;;;;;;0.30;100.00;99226.28;5112688;28;20487;-76
2023/01/25 04:03:37;;;;;;;1999.90;999.90;;;;;;;0.27;100.00;99226.66;5112581;28;20384;-77
2023/01/25 04:06:04;;;;;;;1999.90;999.90;;;;;;;0.38;100.00;99220.72;5112521;28;20081;-76
2023/01/25 04:08:30;;;;;;;1999.90;999.90;;;;;;;0.29;100.00;99219.22;5112562;28;20054;-75
2023/01/25 04:11:00;;;;;;;1999.90;999.90;;;;;;;0.36;100.00;99203.94;5113612;28;20123;-76
2023/01/25 04:13:26;;;;;;;1999.90;999.90;;;;;;;0.29;100.00;99212.00;5112491;28;20033;-75
2023/01/25 04:15:52;;;;;;;1999.90;999.90;;;;;;;0.22;100.00;99207.63;5111174;28;20046;-75
2023/01/25 04:18:17;;;;;;;1999.90;999.90;;;;;;;0.25;100.00;99217.97;5112593;28;20441;-74
2023/01/25 04:20:43;;;;;;;1999.90;999.90;;;;;;;0.20;100.00;99201.59;5110970;28;20081;-75
2023/01/25 04:23:09;;;;;;;1999.90;999.90;;;;;;;0.24;100.00;99208.25;5110782;28;20016;-75
2023/01/25 04:25:35;;;;;;;1999.90;999.90;;;;;;;0.19;100.00;99213.41;5111214;28;20020;-75
2023/01/25 04:28:00;;;;;;;1999.90;999.90;;;;;;;0.27;100.00;99207.84;5111424;28;20008;-75
2023/01/25 04:30:25;;;;;;;1999.90;999.90;;;;;;;0.54;100.00;99209.63;5110059;28;20044;-75
2023/01/25 04:32:51;;;;;;;1999.90;999.90;;;;;;;0.53;100.00;99208.78;5111980;28;20039;-75
2023/01/25 04:35:17;;;;;;;1999.90;999.90;;;;;;;0.49;100.00;99212.09;5110480;28;20092;-77
2023/01/25 04:37:42;;;;;;;1999.90;999.90;;;;;;;0.42;100.00;99211.22;5111957;28;20027;-77
2023/01/25 04:40:08;;;;;;;1999.90;999.90;;;;;;;0.33;100.00;99204.34;5112490;28;20019;-77
2023/01/25 04:42:34;;;;;;;1999.90;999.90;;;;;;;0.45;100.00;99205.44;5104149;28;20020;-76
2023/01/25 04:44:59;;;;;;;1999.90;999.90;;;;;;;0.48;100.00;99207.75;5090286;28;20073;-77
2023/01/25 04:47:25;;;;;;;1999.90;999.90;;;;;;;0.52;100.00;99207.16;5091494;28;20022;-76
2023/01/25 04:49:50;;;;;;;1999.90;999.90;;;;;;;0.54;100.00;99213.16;5091301;28;20396;-76
2023/01/25 04:52:15;;;;;;;1999.90;999.90;;;;;;;0.59;100.00;99204.50;5089117;28;20131;-76
2023/01/25 04:54:41;;;;;;;1999.90;999.90;;;;;;;0.63;100.00;99210.31;5090492;28;20027;-75
2023/01/25 04:57:06;;;;;;;1999.90;999.90;;;;;;;0.57;100.00;99206.53;5089674;28;20037;-76
2023/01/25 04:59:31;;;;;;;1999.90;999.90;;;;;;;0.70;100.00;99217.34;5089669;28;20122;-76
2023/01/25 05:01:56;;;;;;;1999.90;999.90;;;;;;;0.69;100.00;99210.31;5091116;28;20028;-76
2023/01/25 05:04:22;;;;;;;1999.90;999.90;;;;;;;0.68;100.00;99203.28;5091586;28;20031;-74
2023/01/25 05:06:47;;;;;;;1999.90;999.90;;;;;;;0.69;100.00;99221.06;5093205;28;20032;-76
2023/01/25 05:09:13;;;;;;;1999.90;999.90;;;;;;;0.78;100.00;99214.50;5088815;28;20034;-76
2023/01/25 05:11:39;;;;;;;1999.90;999.90;;;;;;;0.84;100.00;99223.63;5090963;28;20118;-77
2023/01/25 05:14:04;;;;;;;1999.90;999.90;;;;;;;0.92;100.00;99220.75;5091145;28;20488;-76
2023/01/25 05:16:31;;;;;;;1999.90;999.90;;;;;;;1.10;100.00;99230.97;5090474;28;20076;-74
2023/01/25 05:18:56;;;;;;;1999.90;999.90;;;;;;;0.98;100.00;99231.53;5091149;28;20105;-75
2023/01/25 05:24:05;;;;;;;1999.90;999.90;;;;;;;0.96;100.00;99228.25;5108687;28;20602;-75
2023/01/25 05:29:15;;;;;;;1999.90;999.90;;;;;;;0.98;100.00;99226.16;5117227;28;20046;-78
2023/01/25 05:31:40;;;;;;;1999.90;999.90;;;;;;;1.00;100.00;99223.28;5114827;28;20031;-75
2023/01/25 05:34:05;;;;;;;1999.90;999.90;;;;;;;0.99;100.00;99217.06;5111418;28;20116;-76
2023/01/25 05:36:31;;;;;;;1999.90;999.90;;;;;;;1.08;100.00;99223.91;5111180;28;20038;-75
2023/01/25 05:38:56;;;;;;;1999.90;999.90;;;;;;;1.12;100.00;99227.03;5109806;28;20027;-75
2023/01/25 05:41:21;;;;;;;1999.90;999.90;;;;;;;1.08;100.00;99212.31;5111054;28;20031;-75
2023/01/25 05:43:47;;;;;;;1999.90;999.90;;;;;;;1.11;100.00;99208.38;5111031;28;20034;-76
2023/01/25 05:46:13;;;;;;;1999.90;999.90;;;;;;;1.19;100.00;99210.91;5110299;28;20123;-75
2023/01/25 05:48:39;;;;;;;1999.90;999.90;;;;;;;1.16;100.00;99206.72;5111479;28;20564;-75
2023/01/25 05:51:05;;;;;;;1999.90;999.90;;;;;;;1.23;100.00;99212.97;5109718;28;20027;-74
2023/01/25 05:53:30;;;;;;;1999.90;999.90;;;;;;;1.22;100.00;99207.78;5109449;28;20115;-76
2023/01/25 05:55:56;;;;;;;1999.90;999.90;;;;;;;1.23;100.00;99198.66;5111100;28;20038;-74
2023/01/25 05:58:21;;;;;;;1999.90;999.90;;;;;;;1.25;100.00;99204.69;5098684;28;20028;-76
2023/01/25 06:00:47;;;;;;;1999.90;999.90;;;;;;;1.24;100.00;99208.41;5096792;28;20119;-77
2023/01/25 06:03:12;;;;;;;1999.90;999.90;;;;;;;1.11;100.00;99211.06;5111581;28;20036;-75
2023/01/25 06:05:37;;;;;;;1999.90;999.90;;;;;;;1.17;100.00;99204.84;5111321;28;20028;-77
2023/01/25 06:08:03;;;;;;;1999.90;999.90;;;;;;;1.25;100.00;99208.22;5110660;28;20036;-76
2023/01/25 06:10:28;;;;;;;1999.90;999.90;;;;;;;1.25;100.00;99210.06;5110957;28;20067;-76
2023/01/25 06:12:58;;;;;;;1999.90;999.90;;;;;;;1.27;100.00;99203.44;5110878;28;20032;-76
2023/01/25 06:15:24;;;;;;;1999.90;999.90;;;;;;;1.29;100.00;99205.91;5109944;28;20024;-76
2023/01/25 06:17:53;;;;;;;1999.90;999.90;;;;;;;1.29;100.00;99204.06;5110921;28;20028;-73
2023/01/25 06:20:18;;;;;;;1999.90;999.90;;;;;;;1.30;100.00;99210.28;5110842;28;20053;-75
2023/01/25 06:22:48;;;;;;;1999.90;999.90;;;;;;;1.30;100.00;99203.03;5110785;28;20027;-74
2023/01/25 06:25:14;;;;;;;1999.90;999.90;;;;;;;1.37;100.00;99205.72;5111333;28;20024;-75
2023/01/25 06:27:39;;;;;;;1999.90;999.90;;;;;;;1.46;100.00;99217.97;5109918;28;20533;-76
2023/01/25 06:30:05;;;;;;;1999.90;999.90;;;;;;;1.48;100.00;99214.03;5110742;28;20492;-75
2023/01/25 06:32:31;;;;;;;1999.90;999.90;;;;;;;1.46;100.00;99212.59;5108362;28;20122;-73
2023/01/25 06:34:57;;;;;;;1999.90;999.90;;;;;;;1.46;100.00;99207.19;5089401;28;20229;-77
2023/01/25 06:37:22;;;;;;;1999.90;999.90;;;;;;;1.46;100.00;99208.03;5090475;28;20467;-76
2023/01/25 06:39:47;;;;;;;1999.90;999.90;;;;;;;1.43;100.00;99204.91;5088844;28;20489;-77
2023/01/25 06:42:13;;;;;;;1999.90;999.90;;;;;;;1.53;100.00;99202.66;5090283;28;20028;-74
2023/01/25 06:44:38;;;;;;;1999.90;999.90;;;;;;;1.57;100.00;99209.25;5088925;28;20116;-76
2023/01/25 06:47:03;;;;;;;1999.90;999.90;;;;;;;1.60;100.00;99200.75;5089015;28;20052;-75
2023/01/25 06:49:28;;;;;;;1999.90;999.90;;;;;;;1.72;100.00;99199.13;5092785;28;20067;-76
2023/01/25 06:51:54;;;;;;;1999.90;999.90;;;;;;;1.71;100.00;99192.06;5092822;28;20473;-76
2023/01/25 06:54:19;;;;;;;1999.90;999.90;;;;;;;1.74;100.00;99198.91;5092734;28;20117;-76
2023/01/25 06:56:44;;;;;;;1999.90;999.90;;;;;;;1.75;100.00;99196.00;5094874;28;20031;-75
2023/01/25 06:59:10;;;;;;;1999.90;999.90;;;;;;;1.77;100.00;99183.13;5093991;28;20464;-76
2023/01/25 07:01:36;;;;;;;1999.90;999.90;;;;;;;1.79;100.00;99191.84;5093534;28;20020;-75
2023/01/25 07:04:01;;;;;;;1999.90;999.90;;;;;;;1.85;100.00;99191.00;5093659;28;20101;-73
2023/01/25 07:06:33;;;;;;;1999.90;999.90;;;;;;;1.89;100.00;99184.16;5093807;28;20481;-76
2023/01/25 07:09:07;;;;;;;1999.90;999.90;;;;;;;2.00;100.00;99194.31;5092341;28;20028;-76
2023/01/25 07:11:33;;;;;;;1999.90;999.90;;;;;;;1.90;100.00;99187.69;5103401;28;20039;-76
2023/01/25 07:13:59;;;;;;;1999.90;999.90;;;;;;;2.00;100.00;99188.09;5096522;28;20020;-76
2023/01/25 07:16:25;;;;;;;1999.90;999.90;;;;;;;2.10;100.00;99189.31;5084254;28;20051;-75
2023/01/25 07:18:50;;;;;;;1999.90;999.90;;;;;;;2.09;100.00;99184.97;5113801;28;20502;-75
2023/01/25 07:21:19;;;;;;;1999.90;999.90;;;;;;;2.23;100.00;99195.72;5101469;28;20436;-77
2023/01/25 07:23:45;;;;;;;1999.90;999.90;;;;;;;2.20;100.00;99179.94;5095247;28;20032;-75
2023/01/25 07:26:16;;;;;;;1999.90;999.90;;;;;;;2.32;100.00;99175.56;5092976;28;20031;-76
2023/01/25 07:28:42;;;;;;;1999.90;999.90;;;;;;;2.34;100.00;99170.78;5091491;28;20480;-75
2023/01/25 07:31:08;;;;;;;1999.90;999.90;;;;;;;2.40;100.00;99175.31;5092783;28;20031;-75
2023/01/25 07:33:34;;;;;;;1999.90;999.90;;;;;;;2.47;100.00;99178.84;5107067;28;20046;-76
2023/01/25 07:36:04;;;;;;;1999.90;999.90;;;;;;;2.51;100.00;99180.06;5112861;28;20472;-81
2023/01/25 07:38:30;;;;;;;1999.90;999.90;;;;;;;2.53;100.00;99178.00;5112815;28;20024;-78
2023/01/25 07:40:56;;;;;;;1999.90;999.90;;;;;;;2.61;100.00;99175.88;5104281;28;20024;-76
2023/01/25 07:43:21;;;;;;;1999.90;999.90;;;;;;;2.65;100.00;99184.38;5105879;28;20024;-78
2023/01/25 07:45:49;;;;;;;1999.90;999.90;;;;;;;2.66;100.00;99183.34;5113230;28;20028;-77
2023/01/25 07:48:17;;;;;;;1999.90;999.90;;;;;;;2.59;100.00;99166.31;5111954;28;20578;-77
2023/01/25 07:50:45;;;;;;;1999.90;999.90;;;;;;;2.69;100.00;99172.91;5113029;28;20035;-77
2023/01/25 07:53:12;;;;;;;1999.90;999.90;;;;;;;2.56;100.00;99178.38;5113576;28;20027;-75
2023/01/25 07:55:37;;;;;;;1999.90;999.90;;;;;;;2.59;100.00;99177.13;5109615;28;20039;-76
2023/01/25 07:58:02;;;;;;;1999.90;999.90;;;;;;;2.57;100.00;99171.09;5094959;28;20020;-77
2023/01/25 08:00:28;;;;;;;1999.90;999.90;;;;;;;2.51;100.00;99159.28;5104078;28;20061;-76
2023/01/25 08:02:53;;;;;;;1999.90;999.90;;;;;;;2.59;100.00;99160.94;5111761;28;20050;-75
2023/01/25 08:05:19;;;;;;;1999.90;999.90;;;;;;;2.58;100.00;99180.88;5111512;28;20031;-76
2023/01/25 08:07:45;;;;;;;1999.90;999.90;;;;;;;2.61;100.00;99175.88;5111375;28;20047;-74
2023/01/25 08:10:11;;;;;;;1999.90;999.90;;;;;;;2.54;100.00;99182.31;5109922;28;20032;-76
2023/01/25 08:12:36;;;;;;;1999.90;999.90;;;;;;;2.56;100.00;99172.16;5111558;28;20027;-74
2023/01/25 08:15:03;;;;;;;1999.90;999.90;;;;;;;2.66;100.00;99178.75;5111863;28;20043;-75
2023/01/25 08:17:31;;;;;;;1999.90;999.90;;;;;;;2.69;100.00;99170.22;5111666;28;20496;-76
2023/01/25 08:19:58;;;;;;;1999.90;999.90;;;;;;;2.67;100.00;99168.78;5110861;28;20023;-76
2023/01/25 08:22:23;;;;;;;1999.90;999.90;;;;;;;2.74;100.00;99188.47;5110912;28;20032;-75
2023/01/25 08:24:49;;;;;;;1999.90;999.90;;;;;;;2.66;100.00;99177.94;5112625;28;20077;-77
2023/01/25 08:27:14;;;;;;;1999.90;999.90;;;;;;;2.57;100.00;99179.19;5112055;28;20024;-75
2023/01/25 08:29:40;;;;;;;1999.90;999.90;;;;;;;2.67;100.00;99171.47;5112256;28;20032;-76
2023/01/25 08:32:06;;;;;;;1999.90;999.90;;;;;;;2.75;100.00;99170.41;5111971;28;20484;-74
2023/01/25 08:34:32;;;;;;;1999.90;999.90;;;;;;;2.71;100.00;99186.22;5111999;28;20026;-75
2023/01/25 08:36:57;;;;;;;1999.90;999.90;;;;;;;2.76;100.00;99183.69;5110661;28;20027;-76
2023/01/25 08:39:23;;;;;;;1999.90;999.90;;;;;;;2.76;100.00;99178.28;5111469;28;20011;-76
2023/01/25 08:41:48;;;;;;;1999.90;999.90;;;;;;;2.81;100.00;99172.25;5110291;28;20055;-74
2023/01/25 08:44:13;;;;;;;1999.90;999.90;;;;;;;2.79;100.00;99185.97;5111937;28;20470;-74
2023/01/25 08:46:38;;;;;;;1999.90;999.90;;;;;;;2.79;100.00;99179.75;5111068;28;20027;-77
2023/01/25 08:49:04;;;;;;;1999.90;999.90;;;;;;;2.86;100.00;99189.47;5112776;28;20022;-76
2023/01/25 08:51:31;;;;;;;1999.90;999.90;;;;;;;2.89;100.00;99183.63;5110253;28;20035;-76
2023/01/25 08:54:00;;;;;;;1999.90;999.90;;;;;;;2.88;100.00;99176.56;5111936;28;20031;-76
2023/01/25 08:56:25;;;;;;;1999.90;999.90;;;;;;;2.77;100.00;99177.25;5110847;28;20015;-75
2023/01/25 08:58:51;;;;;;;1999.90;999.90;;;;;;;2.88;100.00;99187.38;5112063;28;20399;-75
2023/01/25 09:01:17;;;;;;;1999.90;999.90;;;;;;;2.98;100.00;99182.31;5111420;28;20027;-76
2023/01/25 09:03:45;;;;;;;1999.90;999.90;;;;;;;3.13;100.00;99180.16;5110222;28;20016;-76
2023/01/25 09:06:11;;;;;;;1999.90;999.90;;;;;;;3.08;100.00;99165.66;5110029;28;20020;-75
2023/01/25 09:08:37;;;;;;;1999.90;999.90;;;;;;;3.56;100.00;99164.06;5111129;27;20074;-75
2023/01/25 09:11:08;;;;;;;1999.90;999.90;;;;;;;3.85;100.00;99173.41;5109197;28;20496;-75
2023/01/25 09:13:33;;;;;;;1999.90;999.90;;;;;;;3.99;100.00;99169.50;5111148;28;20032;-75
2023/01/25 09:16:01;;;;;;;1999.90;999.90;;;;;;;4.24;100.00;99181.13;5111123;28;20023;-75
2023/01/25 09:18:27;;;;;;;1999.90;999.90;;;;;;;3.96;100.00;99175.34;5111536;28;20527;-76
2023/01/25 09:20:53;;;;;;;1999.90;999.90;;;;;;;3.88;100.00;99175.66;5111124;28;20064;-75
2023/01/25 09:23:21;;;;;;;1999.90;999.90;;;;;;;3.67;100.00;99170.63;5109595;28;20544;-76
2023/01/25 09:25:47;;;;;;;1999.90;999.90;;;;;;;3.69;100.00;99163.13;5111254;28;20088;-75
2023/01/25 09:28:12;;;;;;;1999.90;999.90;;;;;;;3.52;100.00;99162.00;5110928;28;20540;-75
2023/01/25 09:30:38;;;;;;;1999.90;999.90;;;;;;;3.46;100.00;99165.59;5110818;28;20034;-76
2023/01/25 09:33:04;;;;;;;1999.90;999.90;;;;;;;3.61;100.00;99166.09;5109325;28;20035;-76
2023/01/25 09:35:30;;;;;;;1999.90;999.90;;;;;;;3.62;100.00;99165.88;5111116;28;20525;-76
2023/01/25 09:37:55;;;;;;;1999.90;999.90;;;;;;;3.47;100.00;99161.84;5110834;28;20023;-75
2023/01/25 09:40:26;;;;;;;1999.90;999.90;;;;;;;3.44;100.00;99154.19;5111084;28;20106;-74
2023/01/25 09:43:00;;;;;;;1999.90;999.90;;;;;;;3.49;100.00;99143.50;5111420;28;20035;-77
2023/01/25 09:45:33;;;;;;;1999.90;999.90;;;;;;;3.63;100.00;99145.06;5115329;28;20102;-75
2023/01/25 09:48:07;;;;;;;1999.90;999.90;;;;;;;3.67;100.00;99146.28;5114327;28;20103;-76
2023/01/25 09:50:46;;;;;;;1999.90;999.90;;;;;;;3.55;100.00;99153.44;5110644;28;20561;-76
2023/01/25 09:53:20;;;;;;;1999.90;999.90;;;;;;;3.60;100.00;99157.16;5109138;28;20031;-75
2023/01/25 09:56:00;;;;;;;1999.90;999.90;;;;;;;3.63;100.00;99147.78;5109395;28;20427;-75
2023/01/25 09:58:32;;;;;;;1999.90;999.90;;;;;;;3.65;100.00;99145.69;5103588;28;20125;-73
2023/01/25 10:01:16;;;;;;;1999.90;999.90;;;;;;;3.69;100.00;99149.59;5108999;28;20798;-76
2023/01/25 10:03:52;;;;;;;1999.90;999.90;;;;;;;3.79;100.00;99147.19;5107157;28;20028;-75
2023/01/25 10:06:22;;;;;;;1999.90;999.90;;;;;;;3.71;100.00;99145.63;5091434;28;20032;-76
2023/01/25 10:08:58;;;;;;;1999.90;999.90;;;;;;;3.72;100.00;99147.28;5097897;28;20028;-75
2023/01/25 10:11:29;;;;;;;1999.90;999.90;;;;;;;3.95;100.00;99148.50;5108999;28;20077;-75
2023/01/25 10:13:56;;;;;;;1999.90;999.90;;;;;;;3.95;100.00;99141.22;5108819;28;20036;-76
2023/01/25 10:16:30;;;;;;;1999.90;999.90;;;;;;;3.93;100.00;99123.56;5108803;28;20043;-74
2023/01/25 10:19:23;;;;;;;1999.90;999.90;;;;;;;4.01;100.00;99134.91;5109153;28;20547;-76
2023/01/25 10:21:56;;;;;;;1999.90;999.90;;;;;;;3.89;100.00;99130.44;5108617;28;20119;-77
2023/01/25 10:24:57;;;;;;;1999.90;999.90;;;;;;;3.86;100.00;99120.06;5112485;28;20044;-76
2023/01/25 10:27:25;;;;;;;1999.90;999.90;;;;;;;3.93;100.00;99116.25;5113312;28;20058;-76
2023/01/25 10:29:55;;;;;;;1999.90;999.90;;;;;;;3.94;100.00;99117.94;5114523;28;20400;-75
2023/01/25 10:32:33;;;;;;;1999.90;999.90;;;;;;;3.86;100.00;99125.50;5114053;28;20035;-75
2023/01/25 10:35:25;;;;;;;1999.90;999.90;;;;;;;3.83;100.00;99118.66;5115665;28;20024;-82
2023/01/25 10:37:51;;;;;;;1999.90;999.90;;;;;;;3.61;100.00;99109.28;5109765;28;20059;-76
2023/01/25 10:40:29;;;;;;;1999.90;999.90;;;;;;;3.52;100.00;99107.91;5102401;28;20046;-76
2023/01/25 10:43:01;;;;;;;1999.90;999.90;;;;;;;3.54;100.00;99095.03;5113669;28;20031;-74
2023/01/25 10:45:26;;;;;;;1999.90;999.90;;;;;;;3.57;100.00;99094.56;5099443;28;20012;-76
2023/01/25 10:48:05;;;;;;;1999.90;999.90;;;;;;;3.61;100.00;99090.34;5105624;28;20057;-77
2023/01/25 10:50:42;;;;;;;1999.90;999.90;;;;;;;3.66;100.00;99085.94;5107227;28;20023;-75
2023/01/25 10:53:22;;;;;;;1999.90;999.90;;;;;;;3.59;100.00;99077.06;5095389;28;20369;-76
2023/01/25 10:55:54;;;;;;;1999.90;999.90;;;;;;;3.56;100.00;99065.88;5108167;28;20500;-77
2023/01/25 10:58:42;;;;;;;1999.90;999.90;;;;;;;3.68;100.00;99080.31;5099673;28;20065;-77
2023/01/25 11:01:11;;;;;;;1999.90;999.90;;;;;;;3.75;100.00;99071.09;5110947;28;20105;-75
2023/01/25 11:03:40;;;;;;;1999.90;999.90;;;;;;;3.72;100.00;99068.81;5106021;28;20024;-77